sensor_id;sensor_type;location;lat;lon;timestamp;temperature;humidity
67777;DHT22;54576;52.020;5.536;2023-02-13T00:00:22;8.50;97.00
67777;DHT22;54576;52.020;5.536;2023-02-13T00:02:50;8.40;97.20
67777;DHT22;54576;52.020;5.536;2023-02-13T00:05:16;8.50;97.30
67777;DHT22;54576;52.020;5.536;2023-02-13T09:18:54;9.30;99.90
67777;DHT22;54576;52.020;5.536;2023-02-13T12:10:51;11.40;99.90
67777;DHT22;54576;52.020;5.536;2023-02-13T12:34:04;11.50;92.60
67777;DHT22;54576;52.020;5.536;2023-02-13T12:36:49;11.50;94.20
67777;DHT22;54576;52.020;5.536;2023-02-13T12:39:30;11.50;94.40
67777;DHT22;54576;52.020;5.536;2023-02-13T12:42:07;11.50;94.60
67777;DHT22;54576;52.020;5.536;2023-02-13T12:47:22;11.60;94.30
67777;DHT22;54576;52.020;5.536;2023-02-13T12:53:02;11.60;93.90
67777;DHT22;54576;52.020;5.536;2023-02-13T13:01:28;11.70;92.90
67777;DHT22;54576;52.020;5.536;2023-02-13T13:20:46;11.80;94.20
67777;DHT22;54576;52.020;5.536;2023-02-13T13:26:26;11.80;93.50
67777;DHT22;54576;52.020;5.536;2023-02-13T13:28:58;11.80;94.10
67777;DHT22;54576;52.020;5.536;2023-02-13T13:33:53;11.90;94.00
67777;DHT22;54576;52.020;5.536;2023-02-13T13:36:44;11.80;94.50
67777;DHT22;54576;52.020;5.536;2023-02-13T13:41:50;11.90;94.50
67777;DHT22;54576;52.020;5.536;2023-02-13T13:50:18;11.90;93.90
67777;DHT22;54576;52.020;5.536;2023-02-13T14:03:35;12.00;93.70
67777;DHT22;54576;52.020;5.536;2023-02-13T14:06:08;12.00;94.00
67777;DHT22;54576;52.020;5.536;2023-02-13T14:08:56;11.90;93.80
67777;DHT22;54576;52.020;5.536;2023-02-13T14:14:00;12.00;93.80
67777;DHT22;54576;52.020;5.536;2023-02-13T14:16:45;12.00;93.80
67777;DHT22;54576;52.020;5.536;2023-02-13T14:24:53;12.00;93.50
67777;DHT22;54576;52.020;5.536;2023-02-13T14:32:31;12.00;93.20
67777;DHT22;54576;52.020;5.536;2023-02-13T14:37:53;12.00;90.20
67777;DHT22;54576;52.020;5.536;2023-02-13T14:42:54;12.00;93.20
67777;DHT22;54576;52.020;5.536;2023-02-13T14:45:27;11.90;92.70
67777;DHT22;54576;52.020;5.536;2023-02-13T14:47:55;11.90;93.60
67777;DHT22;54576;52.020;5.536;2023-02-13T14:50:28;11.90;93.50
67777;DHT22;54576;52.020;5.536;2023-02-13T14:52:56;11.90;93.40
67777;DHT22;54576;52.020;5.536;2023-02-13T14:55:40;11.90;93.30
67777;DHT22;54576;52.020;5.536;2023-02-13T14:58:29;11.90;92.90
67777;DHT22;54576;52.020;5.536;2023-02-13T15:01:32;11.90;93.00
67777;DHT22;54576;52.020;5.536;2023-02-13T15:04:39;11.90;93.00
67777;DHT22;54576;52.020;5.536;2023-02-13T15:09:34;11.90;93.00
67777;DHT22;54576;52.020;5.536;2023-02-13T15:12:03;11.80;91.60
67777;DHT22;54576;52.020;5.536;2023-02-13T15:14:32;11.80;93.40
67777;DHT22;54576;52.020;5.536;2023-02-13T15:17:14;11.80;93.50
67777;DHT22;54576;52.020;5.536;2023-02-13T15:19:52;11.80;93.20
67777;DHT22;54576;52.020;5.536;2023-02-13T15:22:36;11.80;93.30
67777;DHT22;54576;52.020;5.536;2023-02-13T15:25:03;11.80;93.60
67777;DHT22;54576;52.020;5.536;2023-02-13T15:27:39;11.70;93.50
67777;DHT22;54576;52.020;5.536;2023-02-13T15:30:21;11.70;93.60
67777;DHT22;54576;52.020;5.536;2023-02-13T15:32:59;11.60;93.30
67777;DHT22;54576;52.020;5.536;2023-02-13T15:37:55;11.60;93.80
67777;DHT22;54576;52.020;5.536;2023-02-13T15:40:25;11.60;93.80
67777;DHT22;54576;52.020;5.536;2023-02-13T15:42:51;11.60;93.80
67777;DHT22;54576;52.020;5.536;2023-02-13T15:45:18;11.50;94.00
67777;DHT22;54576;52.020;5.536;2023-02-13T15:47:45;11.50;94.00
67777;DHT22;54576;52.020;5.536;2023-02-13T15:50:37;11.50;94.00
67777;DHT22;54576;52.020;5.536;2023-02-13T15:53:12;11.40;93.60
67777;DHT22;54576;52.020;5.536;2023-02-13T15:55:39;11.40;93.90
67777;DHT22;54576;52.020;5.536;2023-02-13T15:58:05;11.40;94.10
67777;DHT22;54576;52.020;5.536;2023-02-13T16:00:39;11.40;94.00
67777;DHT22;54576;52.020;5.536;2023-02-13T16:03:12;11.30;94.10
67777;DHT22;54576;52.020;5.536;2023-02-13T16:05:39;11.30;94.20
67777;DHT22;54576;52.020;5.536;2023-02-13T16:11:17;11.20;94.10
67777;DHT22;54576;52.020;5.536;2023-02-13T16:14:00;11.20;94.20
67777;DHT22;54576;52.020;5.536;2023-02-13T16:16:28;11.10;94.20
67777;DHT22;54576;52.020;5.536;2023-02-13T16:18:55;11.00;94.50
67777;DHT22;54576;52.020;5.536;2023-02-13T16:21:26;11.00;94.70
67777;DHT22;54576;52.020;5.536;2023-02-13T16:23:57;10.90;94.70
67777;DHT22;54576;52.020;5.536;2023-02-13T16:26:24;10.90;94.90
67777;DHT22;54576;52.020;5.536;2023-02-13T16:28:49;10.80;94.90
67777;DHT22;54576;52.020;5.536;2023-02-13T16:31:16;10.70;95.10
67777;DHT22;54576;52.020;5.536;2023-02-13T16:33:43;10.70;95.10
67777;DHT22;54576;52.020;5.536;2023-02-13T16:38:37;10.60;95.30
67777;DHT22;54576;52.020;5.536;2023-02-13T16:41:05;10.50;95.30
67777;DHT22;54576;52.020;5.536;2023-02-13T16:43:36;10.50;95.40
67777;DHT22;54576;52.020;5.536;2023-02-13T16:46:32;10.40;95.50
67777;DHT22;54576;52.020;5.536;2023-02-13T16:56:23;10.20;96.00
67777;DHT22;54576;52.020;5.536;2023-02-13T16:58:49;10.10;96.10
67777;DHT22;54576;52.020;5.536;2023-02-13T17:01:15;10.00;96.20
67777;DHT22;54576;52.020;5.536;2023-02-13T17:03:42;10.00;96.40
67777;DHT22;54576;52.020;5.536;2023-02-13T17:06:09;9.90;96.40
67777;DHT22;54576;52.020;5.536;2023-02-13T17:08:34;9.90;96.60
67777;DHT22;54576;52.020;5.536;2023-02-13T17:11:03;9.80;96.70
67777;DHT22;54576;52.020;5.536;2023-02-13T17:13:28;9.70;96.80
67777;DHT22;54576;52.020;5.536;2023-02-13T17:15:54;9.60;96.90
67777;DHT22;54576;52.020;5.536;2023-02-13T17:18:20;9.50;97.00
67777;DHT22;54576;52.020;5.536;2023-02-13T17:20:46;9.40;97.20
67777;DHT22;54576;52.020;5.536;2023-02-13T17:23:20;9.30;97.50
67777;DHT22;54576;52.020;5.536;2023-02-13T17:25:47;9.20;97.60
67777;DHT22;54576;52.020;5.536;2023-02-13T17:28:16;9.10;98.10
67777;DHT22;54576;52.020;5.536;2023-02-13T17:30:43;9.00;98.50
67777;DHT22;54576;52.020;5.536;2023-02-13T17:33:30;8.90;98.80
67777;DHT22;54576;52.020;5.536;2023-02-13T17:35:56;8.80;98.80
67777;DHT22;54576;52.020;5.536;2023-02-13T17:38:22;8.70;99.40
67777;DHT22;54576;52.020;5.536;2023-02-13T17:40:48;8.60;99.60
67777;DHT22;54576;52.020;5.536;2023-02-13T17:43:16;8.50;99.80
67777;DHT22;54576;52.020;5.536;2023-02-13T17:45:42;8.50;99.90
67777;DHT22;54576;52.020;5.536;2023-02-13T17:48:08;8.40;99.90
67777;DHT22;54576;52.020;5.536;2023-02-13T17:50:35;8.30;99.90
67777;DHT22;54576;52.020;5.536;2023-02-13T17:53:03;8.30;99.90
67777;DHT22;54576;52.020;5.536;2023-02-13T17:55:31;8.20;99.90
67777;DHT22;54576;52.020;5.536;2023-02-13T17:57:58;8.20;99.90
67777;DHT22;54576;52.020;5.536;2023-02-13T18:00:29;8.10;99.90
67777;DHT22;54576;52.020;5.536;2023-02-13T18:02:57;8.00;99.90
67777;DHT22;54576;52.020;5.536;2023-02-13T18:05:23;8.00;99.90
67777;DHT22;54576;52.020;5.536;2023-02-13T18:07:49;7.90;99.90
67777;DHT22;54576;52.020;5.536;2023-02-13T18:10:20;7.90;99.90
67777;DHT22;54576;52.020;5.536;2023-02-13T18:12:46;7.80;99.90
67777;DHT22;54576;52.020;5.536;2023-02-13T18:15:13;7.80;99.90
67777;DHT22;54576;52.020;5.536;2023-02-13T18:17:39;7.80;99.90
67777;DHT22;54576;52.020;5.536;2023-02-13T18:20:06;7.70;99.90
67777;DHT22;54576;52.020;5.536;2023-02-13T18:22:32;7.70;99.90
67777;DHT22;54576;52.020;5.536;2023-02-13T18:24:57;7.60;99.90
67777;DHT22;54576;52.020;5.536;2023-02-13T18:27:24;7.50;99.90
67777;DHT22;54576;52.020;5.536;2023-02-13T18:29:52;7.50;99.90
67777;DHT22;54576;52.020;5.536;2023-02-13T18:32:21;7.40;99.90
67777;DHT22;54576;52.020;5.536;2023-02-13T18:34:47;7.40;99.90
67777;DHT22;54576;52.020;5.536;2023-02-13T18:37:15;7.30;99.90
67777;DHT22;54576;52.020;5.536;2023-02-13T18:39:41;7.20;99.90
67777;DHT22;54576;52.020;5.536;2023-02-13T18:42:08;7.20;99.90
67777;DHT22;54576;52.020;5.536;2023-02-13T18:44:34;7.10;99.90
67777;DHT22;54576;52.020;5.536;2023-02-13T18:47:00;7.10;99.90
67777;DHT22;54576;52.020;5.536;2023-02-13T18:49:25;7.00;99.90
67777;DHT22;54576;52.020;5.536;2023-02-13T18:51:51;7.00;99.90
67777;DHT22;54576;52.020;5.536;2023-02-13T18:54:17;6.90;99.90
67777;DHT22;54576;52.020;5.536;2023-02-13T18:56:46;6.90;99.90
67777;DHT22;54576;52.020;5.536;2023-02-13T18:59:13;6.80;99.90
67777;DHT22;54576;52.020;5.536;2023-02-13T19:01:39;6.80;99.90
67777;DHT22;54576;52.020;5.536;2023-02-13T19:04:05;6.70;99.90
67777;DHT22;54576;52.020;5.536;2023-02-13T19:06:31;6.70;99.90
67777;DHT22;54576;52.020;5.536;2023-02-13T19:08:57;6.60;99.90
67777;DHT22;54576;52.020;5.536;2023-02-13T19:11:23;6.60;99.90
67777;DHT22;54576;52.020;5.536;2023-02-13T19:13:57;6.50;99.90
67777;DHT22;54576;52.020;5.536;2023-02-13T19:16:25;6.50;99.90
67777;DHT22;54576;52.020;5.536;2023-02-13T19:18:55;6.40;99.90
67777;DHT22;54576;52.020;5.536;2023-02-13T19:21:23;6.30;99.90
67777;DHT22;54576;52.020;5.536;2023-02-13T19:23:49;6.30;99.90
67777;DHT22;54576;52.020;5.536;2023-02-13T19:26:18;6.30;99.90
67777;DHT22;54576;52.020;5.536;2023-02-13T19:28:45;6.30;99.90
67777;DHT22;54576;52.020;5.536;2023-02-13T19:31:14;6.20;99.90
67777;DHT22;54576;52.020;5.536;2023-02-13T19:33:40;6.20;99.90
67777;DHT22;54576;52.020;5.536;2023-02-13T19:36:12;6.10;99.90
67777;DHT22;54576;52.020;5.536;2023-02-13T19:38:38;6.10;99.90
67777;DHT22;54576;52.020;5.536;2023-02-13T19:41:06;6.00;99.90
67777;DHT22;54576;52.020;5.536;2023-02-13T19:43:32;6.00;99.90
67777;DHT22;54576;52.020;5.536;2023-02-13T19:46:06;6.00;99.90
67777;DHT22;54576;52.020;5.536;2023-02-13T19:48:38;6.00;99.90
67777;DHT22;54576;52.020;5.536;2023-02-13T19:51:05;5.90;99.90
67777;DHT22;54576;52.020;5.536;2023-02-13T19:53:31;5.90;99.90
67777;DHT22;54576;52.020;5.536;2023-02-13T19:55:58;5.90;99.90
67777;DHT22;54576;52.020;5.536;2023-02-13T19:58:24;5.90;99.90
67777;DHT22;54576;52.020;5.536;2023-02-13T20:00:51;5.90;99.90
67777;DHT22;54576;52.020;5.536;2023-02-13T20:03:17;5.80;99.90
67777;DHT22;54576;52.020;5.536;2023-02-13T20:05:45;5.80;99.90
67777;DHT22;54576;52.020;5.536;2023-02-13T20:08:11;5.80;99.90
67777;DHT22;54576;52.020;5.536;2023-02-13T20:10:37;5.70;99.90
67777;DHT22;54576;52.020;5.536;2023-02-13T20:13:07;5.70;99.90
67777;DHT22;54576;52.020;5.536;2023-02-13T20:15:33;5.70;99.90
67777;DHT22;54576;52.020;5.536;2023-02-13T20:17:58;5.70;99.90
67777;DHT22;54576;52.020;5.536;2023-02-13T20:20:24;5.70;99.90
67777;DHT22;54576;52.020;5.536;2023-02-13T20:22:52;5.70;99.90
67777;DHT22;54576;52.020;5.536;2023-02-13T20:25:17;5.80;99.90
67777;DHT22;54576;52.020;5.536;2023-02-13T20:27:43;5.80;99.90
67777;DHT22;54576;52.020;5.536;2023-02-13T20:30:12;5.80;99.90
67777;DHT22;54576;52.020;5.536;2023-02-13T20:32:38;5.80;99.90
67777;DHT22;54576;52.020;5.536;2023-02-13T20:35:08;5.70;99.90
67777;DHT22;54576;52.020;5.536;2023-02-13T20:37:34;5.70;99.90
67777;DHT22;54576;52.020;5.536;2023-02-13T20:40:00;5.70;99.90
67777;DHT22;54576;52.020;5.536;2023-02-13T20:42:26;5.80;99.90
67777;DHT22;54576;52.020;5.536;2023-02-13T20:44:53;5.70;99.90
67777;DHT22;54576;52.020;5.536;2023-02-13T20:47:18;5.70;99.90
67777;DHT22;54576;52.020;5.536;2023-02-13T20:49:44;5.70;99.90
67777;DHT22;54576;52.020;5.536;2023-02-13T20:52:10;5.70;99.90
67777;DHT22;54576;52.020;5.536;2023-02-13T20:54:36;5.70;99.90
67777;DHT22;54576;52.020;5.536;2023-02-13T20:57:04;5.70;99.90
67777;DHT22;54576;52.020;5.536;2023-02-13T20:59:30;5.70;99.90
67777;DHT22;54576;52.020;5.536;2023-02-13T21:01:56;5.70;99.90
67777;DHT22;54576;52.020;5.536;2023-02-13T21:04:22;5.70;99.90
67777;DHT22;54576;52.020;5.536;2023-02-13T21:06:48;5.70;99.90
67777;DHT22;54576;52.020;5.536;2023-02-13T21:09:13;5.70;99.90
67777;DHT22;54576;52.020;5.536;2023-02-13T21:11:42;5.60;99.90
67777;DHT22;54576;52.020;5.536;2023-02-13T21:14:10;5.60;99.90
67777;DHT22;54576;52.020;5.536;2023-02-13T21:16:37;5.50;99.90
67777;DHT22;54576;52.020;5.536;2023-02-13T21:19:06;5.50;99.90
67777;DHT22;54576;52.020;5.536;2023-02-13T21:21:34;5.40;99.90
67777;DHT22;54576;52.020;5.536;2023-02-13T21:24:03;5.30;99.90
67777;DHT22;54576;52.020;5.536;2023-02-13T21:26:30;5.30;99.90
67777;DHT22;54576;52.020;5.536;2023-02-13T21:28:57;5.20;99.90
67777;DHT22;54576;52.020;5.536;2023-02-13T21:31:25;5.10;99.90
67777;DHT22;54576;52.020;5.536;2023-02-13T21:33:59;5.00;99.90
67777;DHT22;54576;52.020;5.536;2023-02-13T21:36:29;4.90;99.90
67777;DHT22;54576;52.020;5.536;2023-02-13T21:38:55;4.90;99.90
67777;DHT22;54576;52.020;5.536;2023-02-13T21:41:21;4.80;99.90
67777;DHT22;54576;52.020;5.536;2023-02-13T21:43:47;4.80;99.90
67777;DHT22;54576;52.020;5.536;2023-02-13T21:48:42;4.60;99.90
67777;DHT22;54576;52.020;5.536;2023-02-13T21:51:14;4.50;99.90
67777;DHT22;54576;52.020;5.536;2023-02-13T21:53:57;4.50;99.90
67777;DHT22;54576;52.020;5.536;2023-02-13T21:56:29;4.40;99.90
67777;DHT22;54576;52.020;5.536;2023-02-13T21:58:56;4.30;99.90
67777;DHT22;54576;52.020;5.536;2023-02-13T22:01:26;4.20;99.90
67777;DHT22;54576;52.020;5.536;2023-02-13T22:03:57;4.20;99.90
67777;DHT22;54576;52.020;5.536;2023-02-13T22:06:26;4.20;99.90
67777;DHT22;54576;52.020;5.536;2023-02-13T22:09:09;4.20;99.90
67777;DHT22;54576;52.020;5.536;2023-02-13T22:11:38;4.20;99.90
67777;DHT22;54576;52.020;5.536;2023-02-13T22:14:06;4.20;99.90
67777;DHT22;54576;52.020;5.536;2023-02-13T22:16:35;4.20;99.90
67777;DHT22;54576;52.020;5.536;2023-02-13T22:19:02;4.20;99.90
67777;DHT22;54576;52.020;5.536;2023-02-13T22:21:29;4.20;99.90
67777;DHT22;54576;52.020;5.536;2023-02-13T22:23:56;4.20;99.90
67777;DHT22;54576;52.020;5.536;2023-02-13T22:26:28;4.10;99.90
67777;DHT22;54576;52.020;5.536;2023-02-13T22:28:57;4.10;99.90
67777;DHT22;54576;52.020;5.536;2023-02-13T22:31:23;4.00;99.90
67777;DHT22;54576;52.020;5.536;2023-02-13T22:33:48;3.90;99.90
67777;DHT22;54576;52.020;5.536;2023-02-13T22:36:14;3.90;99.90
67777;DHT22;54576;52.020;5.536;2023-02-13T22:38:42;3.80;99.90
67777;DHT22;54576;52.020;5.536;2023-02-13T22:41:14;3.80;99.90
67777;DHT22;54576;52.020;5.536;2023-02-13T22:43:41;3.80;99.90
67777;DHT22;54576;52.020;5.536;2023-02-13T22:46:14;3.70;99.90
67777;DHT22;54576;52.020;5.536;2023-02-13T22:48:41;3.70;99.90
67777;DHT22;54576;52.020;5.536;2023-02-13T22:51:10;3.70;99.90
67777;DHT22;54576;52.020;5.536;2023-02-13T22:53:36;3.70;99.90
67777;DHT22;54576;52.020;5.536;2023-02-13T22:56:04;3.70;99.90
67777;DHT22;54576;52.020;5.536;2023-02-13T22:58:30;3.60;99.90
67777;DHT22;54576;52.020;5.536;2023-02-13T23:00:56;3.50;99.90
67777;DHT22;54576;52.020;5.536;2023-02-13T23:03:23;3.40;99.90
67777;DHT22;54576;52.020;5.536;2023-02-13T23:05:50;3.40;99.90
67777;DHT22;54576;52.020;5.536;2023-02-13T23:08:16;3.30;99.90
67777;DHT22;54576;52.020;5.536;2023-02-13T23:10:42;3.20;99.90
67777;DHT22;54576;52.020;5.536;2023-02-13T23:13:31;3.20;99.90
67777;DHT22;54576;52.020;5.536;2023-02-13T23:16:00;3.20;99.90
67777;DHT22;54576;52.020;5.536;2023-02-13T23:18:29;3.20;99.90
67777;DHT22;54576;52.020;5.536;2023-02-13T23:20:55;3.20;99.90
67777;DHT22;54576;52.020;5.536;2023-02-13T23:23:30;3.20;99.90
67777;DHT22;54576;52.020;5.536;2023-02-13T23:25:55;3.10;99.90
67777;DHT22;54576;52.020;5.536;2023-02-13T23:28:21;3.10;99.90
67777;DHT22;54576;52.020;5.536;2023-02-13T23:30:46;3.10;99.90
67777;DHT22;54576;52.020;5.536;2023-02-13T23:33:12;3.10;99.90
67777;DHT22;54576;52.020;5.536;2023-02-13T23:35:38;3.10;99.90
67777;DHT22;54576;52.020;5.536;2023-02-13T23:38:03;3.10;99.90
67777;DHT22;54576;52.020;5.536;2023-02-13T23:40:29;3.10;99.90
67777;DHT22;54576;52.020;5.536;2023-02-13T23:42:57;3.00;99.90
67777;DHT22;54576;52.020;5.536;2023-02-13T23:45:23;3.00;99.90
67777;DHT22;54576;52.020;5.536;2023-02-13T23:47:49;3.00;99.90
67777;DHT22;54576;52.020;5.536;2023-02-13T23:50:15;3.00;99.90
67777;DHT22;54576;52.020;5.536;2023-02-13T23:52:40;3.00;99.90
67777;DHT22;54576;52.020;5.536;2023-02-13T23:55:06;2.90;99.90
67777;DHT22;54576;52.020;5.536;2023-02-13T23:57:31;2.90;99.90
67777;DHT22;54576;52.020;5.536;2023-02-13T23:59:58;2.90;99.90
